sensor_id;sensor_type;location;lat;lon;timestamp;pressure;altitude;pressure_sealevel;temperature;humidity
75740;BME280;64357;51.344;6.550;2023-07-13T00:01:50;100988.91;;;17.45;66.87
75740;BME280;64357;51.344;6.550;2023-07-13T00:04:20;100986.56;;;17.48;67.29
75740;BME280;64357;51.344;6.550;2023-07-13T00:06:46;100992.97;;;17.65;66.60
75740;BME280;64357;51.344;6.550;2023-07-13T00:09:16;100987.13;;;17.56;66.61
75740;BME280;64357;51.344;6.550;2023-07-13T00:11:42;100986.31;;;17.57;66.67
75740;BME280;64357;51.344;6.550;2023-07-13T00:14:08;100985.69;;;17.59;66.56
75740;BME280;64357;51.344;6.550;2023-07-13T00:16:38;100997.22;;;17.65;66.48
75740;BME280;64357;51.344;6.550;2023-07-13T00:19:07;100989.69;;;17.56;66.78
75740;BME280;64357;51.344;6.550;2023-07-13T00:21:33;100990.59;;;17.45;67.54
75740;BME280;64357;51.344;6.550;2023-07-13T00:23:58;100979.25;;;17.31;67.72
75740;BME280;64357;51.344;6.550;2023-07-13T00:26:28;100992.03;;;17.41;68.07
75740;BME280;64357;51.344;6.550;2023-07-13T00:28:53;100974.97;;;17.31;68.38
75740;BME280;64357;51.344;6.550;2023-07-13T00:31:21;100979.38;;;17.44;67.63
75740;BME280;64357;51.344;6.550;2023-07-13T00:33:46;100978.66;;;17.35;68.00
75740;BME280;64357;51.344;6.550;2023-07-13T00:36:12;100981.94;;;17.44;67.91
75740;BME280;64357;51.344;6.550;2023-07-13T00:38:38;100981.38;;;17.37;67.98
75740;BME280;64357;51.344;6.550;2023-07-13T00:41:04;100993.25;;;17.35;68.11
75740;BME280;64357;51.344;6.550;2023-07-13T00:43:30;100983.97;;;17.37;68.21
75740;BME280;64357;51.344;6.550;2023-07-13T00:48:25;100996.94;;;17.15;69.13
75740;BME280;64357;51.344;6.550;2023-07-13T00:50:53;100995.63;;;17.20;69.23
75740;BME280;64357;51.344;6.550;2023-07-13T00:53:20;100991.00;;;17.16;69.13
75740;BME280;64357;51.344;6.550;2023-07-13T00:55:49;100984.69;;;17.00;69.87
75740;BME280;64357;51.344;6.550;2023-07-13T00:58:17;100998.59;;;17.02;70.26
75740;BME280;64357;51.344;6.550;2023-07-13T01:00:46;100992.88;;;16.95;70.77
75740;BME280;64357;51.344;6.550;2023-07-13T01:03:12;100997.44;;;16.99;70.35
75740;BME280;64357;51.344;6.550;2023-07-13T01:05:37;100994.16;;;16.78;71.39
75740;BME280;64357;51.344;6.550;2023-07-13T01:08:04;100981.25;;;16.78;71.02
75740;BME280;64357;51.344;6.550;2023-07-13T01:10:33;100994.84;;;16.87;71.14
75740;BME280;64357;51.344;6.550;2023-07-13T01:13:04;100996.59;;;16.76;71.53
75740;BME280;64357;51.344;6.550;2023-07-13T01:15:39;101000.84;;;16.76;71.82
75740;BME280;64357;51.344;6.550;2023-07-13T01:18:09;100997.00;;;16.71;72.14
75740;BME280;64357;51.344;6.550;2023-07-13T01:20:36;100983.38;;;16.62;72.18
75740;BME280;64357;51.344;6.550;2023-07-13T01:23:05;101000.53;;;16.71;72.74
75740;BME280;64357;51.344;6.550;2023-07-13T01:25:32;100994.56;;;16.72;72.48
75740;BME280;64357;51.344;6.550;2023-07-13T01:27:57;100998.94;;;16.73;72.88
75740;BME280;64357;51.344;6.550;2023-07-13T01:30:22;100998.28;;;16.76;72.15
75740;BME280;64357;51.344;6.550;2023-07-13T01:32:50;100993.03;;;16.64;72.99
75740;BME280;64357;51.344;6.550;2023-07-13T01:35:15;101000.00;;;16.65;72.79
75740;BME280;64357;51.344;6.550;2023-07-13T01:37:43;100989.19;;;16.59;73.27
75740;BME280;64357;51.344;6.550;2023-07-13T01:40:11;100990.66;;;16.56;73.45
75740;BME280;64357;51.344;6.550;2023-07-13T01:42:36;100997.19;;;16.62;73.32
75740;BME280;64357;51.344;6.550;2023-07-13T01:45:02;100988.44;;;16.60;73.75
75740;BME280;64357;51.344;6.550;2023-07-13T01:47:30;100999.41;;;16.58;74.17
75740;BME280;64357;51.344;6.550;2023-07-13T01:49:56;100999.41;;;16.58;73.88
75740;BME280;64357;51.344;6.550;2023-07-13T01:52:22;100986.63;;;16.37;73.73
75740;BME280;64357;51.344;6.550;2023-07-13T01:54:53;100986.38;;;16.34;74.26
75740;BME280;64357;51.344;6.550;2023-07-13T01:57:18;100996.38;;;16.41;75.05
75740;BME280;64357;51.344;6.550;2023-07-13T01:59:46;100996.53;;;16.43;74.89
75740;BME280;64357;51.344;6.550;2023-07-13T02:02:14;100994.53;;;16.29;75.47
75740;BME280;64357;51.344;6.550;2023-07-13T02:04:40;100996.81;;;16.36;75.15
75740;BME280;64357;51.344;6.550;2023-07-13T02:07:06;101002.16;;;16.27;75.13
75740;BME280;64357;51.344;6.550;2023-07-13T02:09:32;101011.69;;;16.28;75.74
75740;BME280;64357;51.344;6.550;2023-07-13T02:11:57;100994.41;;;16.27;75.96
75740;BME280;64357;51.344;6.550;2023-07-13T02:14:25;101008.22;;;16.27;76.36
75740;BME280;64357;51.344;6.550;2023-07-13T02:16:50;100993.25;;;16.23;76.30
75740;BME280;64357;51.344;6.550;2023-07-13T02:19:15;100999.31;;;16.24;76.70
75740;BME280;64357;51.344;6.550;2023-07-13T02:21:43;100993.19;;;16.12;77.15
75740;BME280;64357;51.344;6.550;2023-07-13T02:24:08;101004.13;;;16.19;77.55
75740;BME280;64357;51.344;6.550;2023-07-13T02:26:34;100986.34;;;16.12;77.49
75740;BME280;64357;51.344;6.550;2023-07-13T02:28:59;101011.31;;;16.23;77.56
75740;BME280;64357;51.344;6.550;2023-07-13T02:31:27;101001.00;;;16.02;77.89
75740;BME280;64357;51.344;6.550;2023-07-13T02:33:52;101004.88;;;15.96;78.35
75740;BME280;64357;51.344;6.550;2023-07-13T02:36:18;100996.66;;;15.90;79.11
75740;BME280;64357;51.344;6.550;2023-07-13T02:38:43;101008.66;;;15.80;79.83
75740;BME280;64357;51.344;6.550;2023-07-13T02:41:09;100998.84;;;15.86;79.64
75740;BME280;64357;51.344;6.550;2023-07-13T02:43:35;101006.97;;;15.80;80.00
75740;BME280;64357;51.344;6.550;2023-07-13T02:46:03;101014.03;;;15.83;80.51
75740;BME280;64357;51.344;6.550;2023-07-13T02:48:34;101010.56;;;15.82;80.41
75740;BME280;64357;51.344;6.550;2023-07-13T02:51:02;101009.03;;;15.84;80.49
75740;BME280;64357;51.344;6.550;2023-07-13T02:53:30;101011.63;;;15.84;80.49
75740;BME280;64357;51.344;6.550;2023-07-13T02:55:58;101012.31;;;15.71;81.03
75740;BME280;64357;51.344;6.550;2023-07-13T02:58:23;101012.53;;;15.64;81.77
75740;BME280;64357;51.344;6.550;2023-07-13T03:00:49;101003.53;;;15.69;81.69
75740;BME280;64357;51.344;6.550;2023-07-13T03:03:15;101009.47;;;15.68;82.13
75740;BME280;64357;51.344;6.550;2023-07-13T03:05:43;100994.50;;;15.75;81.53
75740;BME280;64357;51.344;6.550;2023-07-13T03:08:10;101007.91;;;15.70;82.70
75740;BME280;64357;51.344;6.550;2023-07-13T03:10:35;101000.72;;;15.66;82.78
75740;BME280;64357;51.344;6.550;2023-07-13T03:13:01;101013.94;;;15.81;82.22
75740;BME280;64357;51.344;6.550;2023-07-13T03:15:27;101008.41;;;15.77;81.95
75740;BME280;64357;51.344;6.550;2023-07-13T03:17:52;101013.06;;;15.60;82.98
75740;BME280;64357;51.344;6.550;2023-07-13T03:20:20;101028.16;;;15.66;83.29
75740;BME280;64357;51.344;6.550;2023-07-13T03:22:45;101020.78;;;15.60;83.39
75740;BME280;64357;51.344;6.550;2023-07-13T03:25:13;101030.06;;;15.68;83.16
75740;BME280;64357;51.344;6.550;2023-07-13T03:27:39;101023.88;;;15.56;83.96
75740;BME280;64357;51.344;6.550;2023-07-13T03:30:05;101032.25;;;15.54;84.65
75740;BME280;64357;51.344;6.550;2023-07-13T03:32:30;101031.84;;;15.59;84.28
75740;BME280;64357;51.344;6.550;2023-07-13T03:34:56;101019.63;;;15.57;83.82
75740;BME280;64357;51.344;6.550;2023-07-13T03:37:21;101035.22;;;15.68;83.99
75740;BME280;64357;51.344;6.550;2023-07-13T03:39:46;101034.16;;;15.77;83.41
75740;BME280;64357;51.344;6.550;2023-07-13T03:42:12;101043.31;;;15.83;83.17
75740;BME280;64357;51.344;6.550;2023-07-13T03:44:39;101044.44;;;15.77;83.52
75740;BME280;64357;51.344;6.550;2023-07-13T03:47:07;101045.34;;;15.77;84.12
75740;BME280;64357;51.344;6.550;2023-07-13T03:49:34;101042.78;;;15.77;83.73
75740;BME280;64357;51.344;6.550;2023-07-13T03:52:00;101042.16;;;15.69;84.63
75740;BME280;64357;51.344;6.550;2023-07-13T03:54:25;101036.00;;;15.67;84.67
75740;BME280;64357;51.344;6.550;2023-07-13T03:56:53;101033.31;;;15.66;84.95
75740;BME280;64357;51.344;6.550;2023-07-13T03:59:18;101045.91;;;15.73;84.97
75740;BME280;64357;51.344;6.550;2023-07-13T04:01:44;101042.03;;;15.68;84.76
75740;BME280;64357;51.344;6.550;2023-07-13T04:04:09;101050.28;;;15.64;85.58
75740;BME280;64357;51.344;6.550;2023-07-13T04:06:35;101048.59;;;15.75;85.29
75740;BME280;64357;51.344;6.550;2023-07-13T04:09:02;101051.28;;;15.76;85.29
75740;BME280;64357;51.344;6.550;2023-07-13T04:11:31;101048.97;;;15.59;86.24
75740;BME280;64357;51.344;6.550;2023-07-13T04:13:59;101061.09;;;15.70;86.06
75740;BME280;64357;51.344;6.550;2023-07-13T04:16:25;101055.59;;;15.65;86.24
75740;BME280;64357;51.344;6.550;2023-07-13T04:18:54;101063.81;;;15.71;86.26
75740;BME280;64357;51.344;6.550;2023-07-13T04:21:22;101067.53;;;15.75;86.37
75740;BME280;64357;51.344;6.550;2023-07-13T04:23:50;101063.16;;;15.64;86.86
75740;BME280;64357;51.344;6.550;2023-07-13T04:26:15;101069.09;;;15.73;86.71
75740;BME280;64357;51.344;6.550;2023-07-13T04:28:43;101066.22;;;15.70;86.91
75740;BME280;64357;51.344;6.550;2023-07-13T04:31:09;101068.28;;;15.84;86.72
75740;BME280;64357;51.344;6.550;2023-07-13T04:33:34;101074.84;;;15.81;86.94
75740;BME280;64357;51.344;6.550;2023-07-13T04:35:59;101066.06;;;15.89;86.35
75740;BME280;64357;51.344;6.550;2023-07-13T04:38:28;101065.94;;;15.87;86.42
75740;BME280;64357;51.344;6.550;2023-07-13T04:40:56;101067.09;;;15.91;86.50
75740;BME280;64357;51.344;6.550;2023-07-13T04:43:27;101076.53;;;15.80;87.10
75740;BME280;64357;51.344;6.550;2023-07-13T04:45:56;101058.75;;;15.83;86.68
75740;BME280;64357;51.344;6.550;2023-07-13T04:48:23;101076.22;;;15.97;86.61
75740;BME280;64357;51.344;6.550;2023-07-13T04:50:55;101079.59;;;15.96;86.68
75740;BME280;64357;51.344;6.550;2023-07-13T04:53:20;101073.69;;;15.87;87.40
75740;BME280;64357;51.344;6.550;2023-07-13T04:55:45;101078.66;;;16.06;87.00
75740;BME280;64357;51.344;6.550;2023-07-13T04:58:12;101080.56;;;16.19;85.74
75740;BME280;64357;51.344;6.550;2023-07-13T05:00:38;101083.88;;;16.18;86.16
75740;BME280;64357;51.344;6.550;2023-07-13T05:03:03;101067.53;;;16.17;85.91
75740;BME280;64357;51.344;6.550;2023-07-13T05:05:29;101077.69;;;16.26;86.06
75740;BME280;64357;51.344;6.550;2023-07-13T05:07:58;101062.03;;;16.35;85.26
75740;BME280;64357;51.344;6.550;2023-07-13T05:10:23;101086.84;;;16.55;84.82
75740;BME280;64357;51.344;6.550;2023-07-13T05:12:51;101089.28;;;16.53;85.26
75740;BME280;64357;51.344;6.550;2023-07-13T05:15:21;101096.63;;;16.59;85.41
75740;BME280;64357;51.344;6.550;2023-07-13T05:17:50;101093.22;;;16.70;85.07
75740;BME280;64357;51.344;6.550;2023-07-13T05:20:18;101082.75;;;16.78;83.91
75740;BME280;64357;51.344;6.550;2023-07-13T05:22:44;101104.31;;;16.79;84.70
75740;BME280;64357;51.344;6.550;2023-07-13T05:25:09;101085.88;;;16.74;84.29
75740;BME280;64357;51.344;6.550;2023-07-13T05:27:35;101102.16;;;16.95;83.74
75740;BME280;64357;51.344;6.550;2023-07-13T05:30:04;101102.38;;;16.98;84.04
75740;BME280;64357;51.344;6.550;2023-07-13T05:32:32;101094.56;;;16.87;84.27
75740;BME280;64357;51.344;6.550;2023-07-13T05:34:58;101103.16;;;16.97;84.41
75740;BME280;64357;51.344;6.550;2023-07-13T05:37:23;101101.41;;;17.08;83.72
75740;BME280;64357;51.344;6.550;2023-07-13T05:39:48;101115.09;;;17.07;83.74
75740;BME280;64357;51.344;6.550;2023-07-13T05:42:16;101101.88;;;17.14;83.83
75740;BME280;64357;51.344;6.550;2023-07-13T05:44:44;101097.47;;;17.01;83.63
75740;BME280;64357;51.344;6.550;2023-07-13T05:47:15;101100.75;;;17.11;83.47
75740;BME280;64357;51.344;6.550;2023-07-13T05:49:43;101113.28;;;17.06;84.41
75740;BME280;64357;51.344;6.550;2023-07-13T05:52:11;101120.53;;;17.22;83.63
75740;BME280;64357;51.344;6.550;2023-07-13T05:54:36;101115.50;;;17.23;83.50
75740;BME280;64357;51.344;6.550;2023-07-13T05:57:04;101130.75;;;17.42;83.01
75740;BME280;64357;51.344;6.550;2023-07-13T05:59:29;101125.75;;;17.33;83.03
75740;BME280;64357;51.344;6.550;2023-07-13T06:01:55;101130.16;;;17.46;83.14
75740;BME280;64357;51.344;6.550;2023-07-13T06:04:22;101134.00;;;17.51;82.56
75740;BME280;64357;51.344;6.550;2023-07-13T06:06:48;101125.78;;;17.45;82.34
75740;BME280;64357;51.344;6.550;2023-07-13T06:09:16;101134.19;;;17.76;81.69
75740;BME280;64357;51.344;6.550;2023-07-13T06:11:42;101140.19;;;17.87;81.56
75740;BME280;64357;51.344;6.550;2023-07-13T06:14:07;101137.06;;;18.03;80.79
75740;BME280;64357;51.344;6.550;2023-07-13T06:16:35;101146.50;;;18.02;81.00
75740;BME280;64357;51.344;6.550;2023-07-13T06:19:00;101141.06;;;17.76;82.49
75740;BME280;64357;51.344;6.550;2023-07-13T06:21:28;101135.28;;;17.68;82.39
75740;BME280;64357;51.344;6.550;2023-07-13T06:23:53;101140.44;;;18.14;80.82
75740;BME280;64357;51.344;6.550;2023-07-13T06:26:22;101151.22;;;18.67;78.73
75740;BME280;64357;51.344;6.550;2023-07-13T06:28:48;101143.69;;;18.70;78.53
75740;BME280;64357;51.344;6.550;2023-07-13T06:31:14;101157.19;;;18.65;77.75
75740;BME280;64357;51.344;6.550;2023-07-13T06:33:40;101155.28;;;18.75;77.47
75740;BME280;64357;51.344;6.550;2023-07-13T06:36:08;101151.25;;;18.20;80.15
75740;BME280;64357;51.344;6.550;2023-07-13T06:38:34;101169.44;;;18.09;81.23
75740;BME280;64357;51.344;6.550;2023-07-13T06:41:02;101164.59;;;18.02;81.81
75740;BME280;64357;51.344;6.550;2023-07-13T06:43:28;101176.81;;;17.93;81.88
75740;BME280;64357;51.344;6.550;2023-07-13T06:45:57;101176.72;;;17.92;82.07
75740;BME280;64357;51.344;6.550;2023-07-13T06:48:23;101174.25;;;18.05;81.58
75740;BME280;64357;51.344;6.550;2023-07-13T06:50:49;101182.38;;;18.09;81.51
75740;BME280;64357;51.344;6.550;2023-07-13T06:53:15;101176.63;;;17.90;81.92
75740;BME280;64357;51.344;6.550;2023-07-13T06:55:45;101171.94;;;18.20;80.60
75740;BME280;64357;51.344;6.550;2023-07-13T06:58:15;101184.63;;;18.52;79.48
75740;BME280;64357;51.344;6.550;2023-07-13T07:00:41;101186.22;;;18.85;78.49
75740;BME280;64357;51.344;6.550;2023-07-13T07:03:06;101181.75;;;18.71;78.02
75740;BME280;64357;51.344;6.550;2023-07-13T07:05:32;101190.41;;;18.71;78.39
75740;BME280;64357;51.344;6.550;2023-07-13T07:07:58;101177.88;;;18.89;76.88
75740;BME280;64357;51.344;6.550;2023-07-13T07:10:24;101195.16;;;19.13;75.55
75740;BME280;64357;51.344;6.550;2023-07-13T07:12:54;101187.53;;;19.28;74.94
75740;BME280;64357;51.344;6.550;2023-07-13T07:15:19;101179.53;;;19.12;74.92
75740;BME280;64357;51.344;6.550;2023-07-13T07:17:44;101203.94;;;19.15;75.49
75740;BME280;64357;51.344;6.550;2023-07-13T07:20:17;101195.03;;;19.24;74.78
75740;BME280;64357;51.344;6.550;2023-07-13T07:22:45;101209.00;;;20.01;72.31
75740;BME280;64357;51.344;6.550;2023-07-13T07:25:13;101198.31;;;19.09;75.47
75740;BME280;64357;51.344;6.550;2023-07-13T07:27:41;101195.13;;;18.53;77.99
75740;BME280;64357;51.344;6.550;2023-07-13T07:30:07;101192.28;;;18.50;77.98
75740;BME280;64357;51.344;6.550;2023-07-13T07:32:32;101208.53;;;19.20;75.57
75740;BME280;64357;51.344;6.550;2023-07-13T07:34:58;101189.13;;;19.63;72.94
75740;BME280;64357;51.344;6.550;2023-07-13T07:37:24;101201.16;;;20.39;70.08
75740;BME280;64357;51.344;6.550;2023-07-13T07:39:51;101205.19;;;20.60;68.43
75740;BME280;64357;51.344;6.550;2023-07-13T07:42:21;101205.91;;;20.71;68.46
75740;BME280;64357;51.344;6.550;2023-07-13T07:44:49;101200.84;;;20.34;70.11
75740;BME280;64357;51.344;6.550;2023-07-13T07:47:14;101204.00;;;21.23;67.09
75740;BME280;64357;51.344;6.550;2023-07-13T07:49:40;101204.06;;;20.96;67.16
75740;BME280;64357;51.344;6.550;2023-07-13T07:52:08;101199.31;;;21.17;66.22
75740;BME280;64357;51.344;6.550;2023-07-13T07:54:36;101212.19;;;21.16;65.73
75740;BME280;64357;51.344;6.550;2023-07-13T07:57:04;101201.03;;;21.73;64.63
75740;BME280;64357;51.344;6.550;2023-07-13T07:59:35;101191.22;;;22.41;61.87
75740;BME280;64357;51.344;6.550;2023-07-13T08:02:06;101200.63;;;21.95;62.87
75740;BME280;64357;51.344;6.550;2023-07-13T08:04:31;101190.78;;;21.61;63.44
75740;BME280;64357;51.344;6.550;2023-07-13T08:06:59;101188.91;;;21.59;63.69
75740;BME280;64357;51.344;6.550;2023-07-13T08:09:28;101195.69;;;21.56;64.34
75740;BME280;64357;51.344;6.550;2023-07-13T08:11:53;101200.69;;;21.25;65.88
75740;BME280;64357;51.344;6.550;2023-07-13T08:14:25;101194.03;;;21.29;65.98
75740;BME280;64357;51.344;6.550;2023-07-13T08:16:50;101206.47;;;20.80;67.37
75740;BME280;64357;51.344;6.550;2023-07-13T08:19:18;101190.47;;;20.34;68.91
75740;BME280;64357;51.344;6.550;2023-07-13T08:21:44;101196.75;;;20.11;70.10
75740;BME280;64357;51.344;6.550;2023-07-13T08:24:15;101196.09;;;20.40;69.79
75740;BME280;64357;51.344;6.550;2023-07-13T08:26:42;101201.88;;;20.63;68.70
75740;BME280;64357;51.344;6.550;2023-07-13T08:29:08;101198.78;;;20.68;69.01
75740;BME280;64357;51.344;6.550;2023-07-13T08:31:36;101209.75;;;20.91;68.54
75740;BME280;64357;51.344;6.550;2023-07-13T08:34:01;101190.09;;;21.22;66.44
75740;BME280;64357;51.344;6.550;2023-07-13T08:36:35;101190.78;;;21.33;66.43
75740;BME280;64357;51.344;6.550;2023-07-13T08:39:08;101196.59;;;22.44;62.75
75740;BME280;64357;51.344;6.550;2023-07-13T08:41:34;101196.94;;;22.50;62.01
75740;BME280;64357;51.344;6.550;2023-07-13T08:44:01;101206.03;;;22.13;63.64
75740;BME280;64357;51.344;6.550;2023-07-13T08:46:35;101200.75;;;21.68;64.58
75740;BME280;64357;51.344;6.550;2023-07-13T08:49:04;101201.38;;;20.29;69.96
75740;BME280;64357;51.344;6.550;2023-07-13T08:54:11;101189.28;;;20.29;70.64
75740;BME280;64357;51.344;6.550;2023-07-13T08:56:53;101188.00;;;20.36;71.33
75740;BME280;64357;51.344;6.550;2023-07-13T08:59:22;101191.25;;;19.93;73.03
75740;BME280;64357;51.344;6.550;2023-07-13T09:04:53;101191.47;;;19.72;73.24
75740;BME280;64357;51.344;6.550;2023-07-13T09:10:14;101198.41;;;21.30;66.96
75740;BME280;64357;51.344;6.550;2023-07-13T09:17:52;101204.13;;;23.00;61.07
75740;BME280;64357;51.344;6.550;2023-07-13T09:20:25;101210.69;;;23.41;58.38
75740;BME280;64357;51.344;6.550;2023-07-13T09:22:56;101203.94;;;23.93;55.85
75740;BME280;64357;51.344;6.550;2023-07-13T09:25:30;101207.75;;;22.12;61.80
75740;BME280;64357;51.344;6.550;2023-07-13T09:27:59;101211.53;;;22.78;59.63
75740;BME280;64357;51.344;6.550;2023-07-13T09:30:41;101201.78;;;23.21;58.04
75740;BME280;64357;51.344;6.550;2023-07-13T09:33:12;101208.25;;;22.51;60.07
75740;BME280;64357;51.344;6.550;2023-07-13T09:35:39;101215.81;;;21.74;62.29
75740;BME280;64357;51.344;6.550;2023-07-13T09:38:13;101197.94;;;21.93;61.78
75740;BME280;64357;51.344;6.550;2023-07-13T09:44:14;101213.53;;;24.45;53.60
75740;BME280;64357;51.344;6.550;2023-07-13T09:46:57;101213.03;;;25.64;49.70
75740;BME280;64357;51.344;6.550;2023-07-13T09:49:29;101204.00;;;26.38;46.57
75740;BME280;64357;51.344;6.550;2023-07-13T09:52:16;101214.53;;;26.81;46.36
75740;BME280;64357;51.344;6.550;2023-07-13T09:54:48;101210.97;;;26.16;47.05
75740;BME280;64357;51.344;6.550;2023-07-13T09:57:19;101210.81;;;26.13;47.68
75740;BME280;64357;51.344;6.550;2023-07-13T10:02:37;101196.84;;;24.79;50.42
75740;BME280;64357;51.344;6.550;2023-07-13T10:05:15;101211.31;;;23.21;55.21
75740;BME280;64357;51.344;6.550;2023-07-13T10:07:44;101216.38;;;23.99;53.43
75740;BME280;64357;51.344;6.550;2023-07-13T10:10:21;101225.28;;;25.08;50.82
75740;BME280;64357;51.344;6.550;2023-07-13T10:12:48;101211.94;;;24.66;50.60
75740;BME280;64357;51.344;6.550;2023-07-13T10:15:23;101213.34;;;24.42;51.65
75740;BME280;64357;51.344;6.550;2023-07-13T10:17:53;101223.97;;;25.36;48.68
75740;BME280;64357;51.344;6.550;2023-07-13T10:20:20;101221.56;;;26.40;46.05
75740;BME280;64357;51.344;6.550;2023-07-13T10:23:15;101220.25;;;25.89;44.96
75740;BME280;64357;51.344;6.550;2023-07-13T10:25:48;101217.84;;;25.35;48.17
75740;BME280;64357;51.344;6.550;2023-07-13T10:30:52;101212.84;;;23.64;53.37
75740;BME280;64357;51.344;6.550;2023-07-13T10:33:20;101227.16;;;24.05;52.91
75740;BME280;64357;51.344;6.550;2023-07-13T10:35:47;101226.44;;;23.59;53.37
75740;BME280;64357;51.344;6.550;2023-07-13T10:38:25;101223.47;;;22.74;56.48
75740;BME280;64357;51.344;6.550;2023-07-13T10:41:06;101216.63;;;22.16;56.35
75740;BME280;64357;51.344;6.550;2023-07-13T10:43:35;101220.25;;;21.90;57.06
75740;BME280;64357;51.344;6.550;2023-07-13T10:46:07;101216.34;;;21.68;57.65
75740;BME280;64357;51.344;6.550;2023-07-13T10:48:35;101222.63;;;22.44;56.76
75740;BME280;64357;51.344;6.550;2023-07-13T10:51:04;101219.50;;;23.59;53.45
75740;BME280;64357;51.344;6.550;2023-07-13T10:53:40;101217.72;;;25.51;46.86
75740;BME280;64357;51.344;6.550;2023-07-13T10:56:30;101230.13;;;25.38;46.88
75740;BME280;64357;51.344;6.550;2023-07-13T10:59:17;101206.34;;;26.51;44.58
75740;BME280;64357;51.344;6.550;2023-07-13T11:04:25;101234.84;;;26.87;42.69
75740;BME280;64357;51.344;6.550;2023-07-13T11:07:16;101234.19;;;26.09;44.21
75740;BME280;64357;51.344;6.550;2023-07-13T11:09:43;101230.50;;;26.87;42.20
75740;BME280;64357;51.344;6.550;2023-07-13T11:23:09;101216.38;;;25.22;44.26
75740;BME280;64357;51.344;6.550;2023-07-13T11:25:37;101204.69;;;25.92;43.63
75740;BME280;64357;51.344;6.550;2023-07-13T11:35:50;101201.66;;;23.67;49.10
75740;BME280;64357;51.344;6.550;2023-07-13T11:38:21;101202.28;;;25.58;45.82
75740;BME280;64357;51.344;6.550;2023-07-13T11:40:48;101196.59;;;26.48;42.61
75740;BME280;64357;51.344;6.550;2023-07-13T11:43:16;101204.47;;;26.27;42.83
75740;BME280;64357;51.344;6.550;2023-07-13T11:45:43;101190.28;;;26.43;42.39
75740;BME280;64357;51.344;6.550;2023-07-13T11:48:30;101185.59;;;25.56;44.65
75740;BME280;64357;51.344;6.550;2023-07-13T11:51:04;101201.19;;;26.12;43.59
75740;BME280;64357;51.344;6.550;2023-07-13T11:53:38;101197.41;;;26.05;43.26
75740;BME280;64357;51.344;6.550;2023-07-13T11:56:05;101213.16;;;25.28;44.19
75740;BME280;64357;51.344;6.550;2023-07-13T11:58:33;101204.59;;;25.71;42.45
75740;BME280;64357;51.344;6.550;2023-07-13T12:01:00;101202.06;;;25.72;41.75
75740;BME280;64357;51.344;6.550;2023-07-13T12:03:28;101192.91;;;26.22;42.11
75740;BME280;64357;51.344;6.550;2023-07-13T12:05:59;101191.06;;;26.41;41.45
75740;BME280;64357;51.344;6.550;2023-07-13T12:08:28;101192.34;;;26.73;41.17
75740;BME280;64357;51.344;6.550;2023-07-13T12:11:04;101206.00;;;26.22;42.32
75740;BME280;64357;51.344;6.550;2023-07-13T12:13:37;101198.13;;;25.43;43.39
75740;BME280;64357;51.344;6.550;2023-07-13T12:18:52;101181.00;;;25.69;42.88
75740;BME280;64357;51.344;6.550;2023-07-13T12:21:19;101195.69;;;26.06;40.55
75740;BME280;64357;51.344;6.550;2023-07-13T12:23:48;101193.69;;;24.32;43.92
75740;BME280;64357;51.344;6.550;2023-07-13T12:26:15;101195.00;;;24.06;45.68
75740;BME280;64357;51.344;6.550;2023-07-13T12:28:55;101180.88;;;24.03;46.54
75740;BME280;64357;51.344;6.550;2023-07-13T12:31:41;101196.75;;;23.73;47.92
75740;BME280;64357;51.344;6.550;2023-07-13T12:34:20;101195.69;;;23.04;50.23
75740;BME280;64357;51.344;6.550;2023-07-13T12:36:50;101203.50;;;23.04;50.99
75740;BME280;64357;51.344;6.550;2023-07-13T12:39:28;101208.44;;;23.63;49.67
75740;BME280;64357;51.344;6.550;2023-07-13T12:42:20;101204.94;;;25.03;46.08
75740;BME280;64357;51.344;6.550;2023-07-13T12:44:46;101208.34;;;26.16;42.81
75740;BME280;64357;51.344;6.550;2023-07-13T12:47:13;101215.72;;;25.09;43.14
75740;BME280;64357;51.344;6.550;2023-07-13T12:49:48;101203.81;;;24.60;44.25
75740;BME280;64357;51.344;6.550;2023-07-13T12:52:19;101206.09;;;24.72;44.21
75740;BME280;64357;51.344;6.550;2023-07-13T12:55:02;101214.94;;;25.48;42.53
75740;BME280;64357;51.344;6.550;2023-07-13T12:57:41;101200.34;;;25.34;42.38
75740;BME280;64357;51.344;6.550;2023-07-13T13:02:53;101200.06;;;25.67;41.73
75740;BME280;64357;51.344;6.550;2023-07-13T13:05:20;101205.66;;;25.94;40.55
75740;BME280;64357;51.344;6.550;2023-07-13T13:07:49;101190.16;;;25.60;41.07
75740;BME280;64357;51.344;6.550;2023-07-13T13:10:14;101183.78;;;25.34;42.58
75740;BME280;64357;51.344;6.550;2023-07-13T13:12:42;101200.69;;;25.22;42.63
75740;BME280;64357;51.344;6.550;2023-07-13T13:15:09;101205.84;;;25.79;42.29
75740;BME280;64357;51.344;6.550;2023-07-13T13:17:36;101201.88;;;25.87;42.13
75740;BME280;64357;51.344;6.550;2023-07-13T13:20:12;101200.53;;;25.97;42.09
75740;BME280;64357;51.344;6.550;2023-07-13T13:22:42;101194.13;;;25.71;42.71
75740;BME280;64357;51.344;6.550;2023-07-13T13:25:11;101212.81;;;25.59;43.09
75740;BME280;64357;51.344;6.550;2023-07-13T13:27:45;101212.53;;;24.61;44.67
75740;BME280;64357;51.344;6.550;2023-07-13T13:30:12;101217.97;;;24.13;45.22
75740;BME280;64357;51.344;6.550;2023-07-13T13:32:40;101213.81;;;24.17;44.77
75740;BME280;64357;51.344;6.550;2023-07-13T13:35:18;101213.78;;;24.33;45.25
75740;BME280;64357;51.344;6.550;2023-07-13T13:37:48;101220.13;;;24.56;44.54
75740;BME280;64357;51.344;6.550;2023-07-13T13:40:17;101227.69;;;23.65;47.55
75740;BME280;64357;51.344;6.550;2023-07-13T13:42:46;101214.19;;;23.90;46.86
75740;BME280;64357;51.344;6.550;2023-07-13T13:45:12;101220.31;;;23.91;47.09
75740;BME280;64357;51.344;6.550;2023-07-13T13:47:38;101221.50;;;24.32;46.61
75740;BME280;64357;51.344;6.550;2023-07-13T13:50:32;101223.09;;;23.94;47.45